Flight Track Log - Related Links

Times and Time Zones

All times are in EDT time to prevent confusion due to time zone crossing. See the N182HP flight status page for this flight to view local times or setup timezone preferences in your user account.

Time Position Orientation Groundspeed Altitude Reporting Facility
EDT Latitude Longitude Course Direction KTS MPH feet Rate Location/Type
Thu 10:30:50 AM 38.3778 -78.7461 32° Northeast 110 127 6,100  Level Washington Center
Thu 10:31:51 AM 38.4014 -78.7258 34° Northeast 105 121 6,800 504 Climbing Washington Center
Thu 10:32:49 AM 38.4292 -78.7033 32° Northeast 105 121 7,100 153 Climbing Washington Center
Thu 10:33:49 AM 38.4631 -78.6781 30° Northeast 122 140 7,100  Level Washington Center
Thu 10:34:00 AM 38.3478 -78.7072 29° Northeast  Level Estimated
Thu 10:34:49 AM 38.4950 -78.6478 37° Northeast 133 153 7,100  Level Washington Center
Thu 10:35:50 AM 38.5292 -78.6225 30° Northeast 133 153 7,100  Level Washington Center
Thu 10:36:51 AM 38.5633 -78.5919 35° Northeast 138 159 7,100  Level Washington Center
Thu 10:37:50 AM 38.5950 -78.5694 29° Northeast 138 159 7,100  Level Washington Center
Thu 10:38:51 AM 38.6272 -78.5389 37° Northeast 138 159 7,100  Level Washington Center
Thu 10:39:49 AM 38.6611 -78.5108 33° Northeast 138 159 7,100  Level Washington Center
Thu 10:40:50 AM 38.6931 -78.4803 37° Northeast 138 159 7,100  Level Washington Center
Thu 10:41:50 AM 38.7272 -78.4469 37° Northeast 138 159 7,100  Level Washington Center
Thu 10:42:51 AM 38.7592 -78.4189 34° Northeast 138 159 7,100  Level Washington Center
Thu 10:43:49 AM 38.7911 -78.3908 34° Northeast 138 159 7,100  Level Washington Center
Thu 10:44:49 AM 38.8253 -78.3603 35° Northeast 138 159 7,100  Level Washington Center
Thu 10:47:09 AM 38.9167 -78.2833 33° Northeast 151 174 7,100  Level Potomac TRACON
Thu 10:48:10 AM 38.9500 -78.2500 38° Northeast 148 170 7,100 -99 Level Potomac TRACON
Thu 10:49:10 AM 38.9833 -78.2167 38° Northeast 153 176 6,900 -400 Descending Potomac TRACON
Thu 10:50:10 AM 39.0167 -78.1833 38° Northeast 166 191 6,300 -600 Descending Potomac TRACON
Thu 10:51:10 AM 39.0500 -78.1500 38° Northeast 164 189 5,700 -526 Descending Potomac TRACON
Thu 10:52:04 AM 39.0833 -78.1333 21° North 162 186 5,300 -350 Descending Potomac TRACON
Thu 10:53:10 AM 39.1167 -78.0833 49° Northeast 151 174 5,000 -143 Descending Potomac TRACON
Thu 10:54:10 AM 39.1500 -78.0667 21° North 141 162 5,000  Level Potomac TRACON
Thu 10:55:10 AM 39.1833 -78.0333 38° Northeast 140 161 5,000  Level Potomac TRACON
Thu 10:56:10 AM 39.2167 -78.0000 38° Northeast 140 161 5,000  Level Potomac TRACON
Thu 10:57:04 AM 39.2500 -77.9833 21° North 138 159 5,000  Level Potomac TRACON
Thu 10:57:58 AM 39.2667 -77.9500 57° Northeast 137 158 5,000  Level Potomac TRACON
Thu 10:58:59 AM 39.3000 -77.9167 38° Northeast 138 159 5,000  Level Potomac TRACON
Thu 10:59:59 AM 39.3333 -77.9000 21° North 140 161 5,000  Level Potomac TRACON
Thu 11:00:59 AM 39.3667 -77.8667 38° Northeast 136 157 5,000  Level Potomac TRACON
Thu 11:01:59 AM 39.3833 -77.8167 67° East 140 161 5,000  Level Potomac TRACON
Thu 11:02:59 AM 39.4000 -77.7667 67° East 138 159 5,000  Level Potomac TRACON
Thu 11:03:59 AM 39.4000 -77.7333 90° East 139 160 5,000  Level Potomac TRACON
Thu 11:04:53 AM 39.4000 -77.6833 90° East 137 158 5,000  Level Potomac TRACON
Thu 11:05:59 AM 39.4167 -77.6333 67° East 140 161 5,000  Level Potomac TRACON
Thu 11:06:54 AM 39.4167 -77.5833 90° East 144 166 5,000  Level Potomac TRACON
Thu 11:07:54 AM 39.4167 -77.5333 90° East 138 159 5,000  Level Potomac TRACON
Thu 11:08:54 AM 39.4333 -77.4833 67° East 141 162 5,000  Level Potomac TRACON
Thu 11:09:54 AM 39.4333 -77.4333 90° East 143 165 5,000  Level Potomac TRACON
Thu 11:10:49 AM 39.4500 -77.3833 67° East 138 159 5,000  Level Potomac TRACON
Thu 11:11:49 AM 39.4500 -77.3333 90° East 136 157 5,000  Level Potomac TRACON
Thu 11:12:49 AM 39.4667 -77.3000 57° Northeast 139 160 5,000  Level Potomac TRACON
Thu 11:13:49 AM 39.4833 -77.2500 67° East 139 160 5,000  Level Potomac TRACON
Thu 11:14:44 AM 39.5000 -77.2167 57° Northeast 141 162 5,000  Level Potomac TRACON
Thu 11:15:44 AM 39.5167 -77.1667 67° East 142 163 5,000  Level Potomac TRACON
Thu 11:16:44 AM 39.5333 -77.1167 67° East 143 165 5,000  Level Potomac TRACON
Thu 11:17:45 AM 39.5500 -77.0667 67° East 146 168 5,000  Level Potomac TRACON
Thu 11:18:45 AM 39.5667 -77.0167 67° East 139 160 5,000  Level Potomac TRACON
Thu 11:19:45 AM 39.5667 -76.9667 90° East 142 163 5,000  Level Potomac TRACON
Thu 11:20:45 AM 39.5833 -76.9167 67° East 141 162 5,000  Level Potomac TRACON
Thu 11:21:45 AM 39.5833 -76.8667 90° East 138 159 5,000  Level Potomac TRACON
Thu 11:22:45 AM 39.5667 -76.8333 123° Southeast 134 154 5,000  Level Potomac TRACON
Thu 11:23:45 AM 39.5500 -76.7833 113° Southeast 134 154 5,000  Level Potomac TRACON
Thu 11:24:45 AM 39.5333 -76.7500 123° Southeast 133 153 5,000 -250 Level Potomac TRACON
Thu 11:25:45 AM 39.5167 -76.7000 113° Southeast 149 171 4,500 -496 Descending Potomac TRACON
Thu 11:26:46 AM 39.5000 -76.6500 113° Southeast 155 178 4,000 -248 Descending Potomac TRACON
Thu 11:27:46 AM 39.5000 -76.6000 90° East 139 160 4,000  Level Potomac TRACON
Thu 11:28:46 AM 39.5000 -76.5500 90° East 134 154 4,000  Level Potomac TRACON
Thu 11:29:46 AM 39.4833 -76.5167 123° Southeast 133 153 4,000  Level Potomac TRACON
Thu 11:30:46 AM 39.4500 -76.5000 159° South 130 150 4,000  Level Potomac TRACON
Thu 11:31:46 AM 39.4167 -76.4833 159° South 133 153 4,000  Level Potomac TRACON
Thu 11:32:46 AM 39.3833 -76.4667 159° South 131 151 4,000  Level Potomac TRACON
Thu 11:33:46 AM 39.3500 -76.4500 159° South 131 151 4,000 -500 Level Potomac TRACON
Thu 11:34:46 AM 39.3167 -76.4333 159° South 128 147 3,000 -1,400 Descending Potomac TRACON
Thu 11:35:46 AM 39.3000 -76.4000 123° Southeast 123 142 1,200 -1,250 Descending Potomac TRACON
Thu 11:36:46 AM 39.3167 -76.4000 360° North 74 85 500 -522 Descending Potomac TRACON
Thu 11:37:41 AM 39.3167 -76.4167 270° West 62 71 200 -327 Descending Potomac TRACON
Thu 11:39:00 AM 39.3167 -76.4000 North  Level FlightAware Approximate
Thu 11:46:00 AM 39.3257 -76.4138 North  Level Estimated
Thu 11:47:00 AM 39.3257 -76.4138 North  Level Estimated
Thu 11:48:00 AM 39.3257 -76.4138 North  Level Estimated

Login

Don't have an account? Register now (free) for customized features, flight alerts, and more!